Time;durP1;ratioP1;P1;durP2;ratioP2;P2;SDS_P1;SDS_P2;PMS_P1;PMS_P2;Temp;Humidity;BMP_temperature;BMP_pressure;BME280_temperature;BME280_humidity;BME280_pressure;Samples;Min_cycle;Max_cycle;Signal;HPM_P1;HPM_P2
2021/09/05 00:01:21;;;;;;;1.83;1.00;;;6.80;99.90;;;;;;5073019;28;20036;-71
2021/09/05 00:03:47;;;;;;;1.60;0.93;;;6.80;99.90;;;;;;5073166;28;20031;-71
2021/09/05 00:06:12;;;;;;;1.58;1.08;;;6.80;99.90;;;;;;5073285;28;20024;-70
2021/09/05 00:08:38;;;;;;;1.63;1.00;;;6.80;99.90;;;;;;5072975;28;20029;-71
2021/09/05 00:11:04;;;;;;;2.30;1.10;;;6.80;99.90;;;;;;5072875;28;20028;-70
2021/09/05 00:13:30;;;;;;;1.73;1.10;;;6.80;99.90;;;;;;5072821;28;20070;-70
2021/09/05 00:15:55;;;;;;;2.97;1.27;;;6.80;99.90;;;;;;5072805;28;20047;-70
2021/09/05 00:18:21;;;;;;;3.38;1.25;;;6.80;99.90;;;;;;5072993;28;20032;-70
2021/09/05 00:20:47;;;;;;;3.08;1.30;;;6.80;99.90;;;;;;5072764;28;20024;-70
2021/09/05 00:23:14;;;;;;;4.18;1.30;;;6.80;99.90;;;;;;5073036;28;20021;-71
2021/09/05 00:25:40;;;;;;;5.55;1.30;;;6.80;99.90;;;;;;5072841;28;20025;-71
2021/09/05 00:28:05;;;;;;;2.33;1.08;;;6.80;99.90;;;;;;5072478;28;20107;-71
2021/09/05 00:30:31;;;;;;;2.20;1.17;;;6.80;99.90;;;;;;5072784;28;20103;-71
2021/09/05 00:32:57;;;;;;;1.88;1.10;;;6.80;99.90;;;;;;5072599;28;20468;-71
2021/09/05 00:35:23;;;;;;;2.58;0.90;;;6.80;99.90;;;;;;5072563;28;20041;-70
2021/09/05 00:37:49;;;;;;;3.58;1.48;;;6.80;99.90;;;;;;5072441;28;20025;-70
2021/09/05 00:40:14;;;;;;;2.92;1.73;;;6.80;99.90;;;;;;5072768;28;20103;-70
2021/09/05 00:42:40;;;;;;;4.07;1.40;;;6.80;99.90;;;;;;5072504;28;20036;-71
2021/09/05 00:45:06;;;;;;;5.13;1.90;;;6.80;99.90;;;;;;5072337;28;20539;-71
2021/09/05 00:47:32;;;;;;;3.67;1.48;;;6.80;99.90;;;;;;5072177;28;20103;-70
2021/09/05 00:49:58;;;;;;;2.92;1.50;;;6.80;99.90;;;;;;5072408;28;20162;-71
2021/09/05 00:52:24;;;;;;;2.40;1.38;;;6.80;99.90;;;;;;5072322;28;20491;-71
2021/09/05 00:54:51;;;;;;;2.88;1.00;;;6.80;99.90;;;;;;5071986;28;20494;-71
2021/09/05 00:57:18;;;;;;;0.95;0.80;;;6.80;99.90;;;;;;5072106;28;20021;-71
2021/09/05 00:59:48;;;;;;;3.63;1.30;;;6.80;99.90;;;;;;5072122;28;20037;-72
2021/09/05 01:02:14;;;;;;;4.10;1.30;;;6.80;99.90;;;;;;5072501;28;20078;-70
2021/09/05 01:04:40;;;;;;;1.83;0.90;;;6.80;99.90;;;;;;5072322;28;20501;-70
2021/09/05 01:07:05;;;;;;;1.70;0.82;;;6.80;99.90;;;;;;5072250;28;20473;-70
2021/09/05 01:09:32;;;;;;;1.70;1.15;;;6.80;99.90;;;;;;5072049;28;20108;-70
2021/09/05 01:11:59;;;;;;;2.67;1.20;;;6.80;99.90;;;;;;5072463;28;20050;-72
2021/09/05 01:14:26;;;;;;;2.00;1.23;;;6.80;99.90;;;;;;5071897;28;20029;-72
2021/09/05 01:48:21;;;;;;;3.50;1.45;;;6.80;99.90;;;;;;5075573;28;20480;-72
2021/09/05 01:50:47;;;;;;;4.30;0.95;;;6.80;99.90;;;;;;5074337;28;20036;-71
2021/09/05 01:53:13;;;;;;;1.77;1.08;;;6.90;99.90;;;;;;5075816;28;20103;-71
2021/09/05 01:55:38;;;;;;;1.77;0.93;;;6.90;99.90;;;;;;5075395;28;20063;-71
2021/09/05 01:58:04;;;;;;;2.08;1.05;;;6.90;99.90;;;;;;5075789;28;20025;-71
2021/09/05 02:00:30;;;;;;;2.47;1.00;;;6.90;99.90;;;;;;5075824;28;20059;-71
2021/09/05 02:02:56;;;;;;;2.70;1.42;;;6.90;99.90;;;;;;5075569;28;20025;-71
2021/09/05 02:05:21;;;;;;;1.58;0.90;;;6.90;99.90;;;;;;5075444;28;20028;-70
2021/09/05 02:07:47;;;;;;;2.40;0.90;;;6.90;99.90;;;;;;5075153;28;20112;-70
2021/09/05 02:10:13;;;;;;;2.42;1.00;;;6.80;99.90;;;;;;5075626;28;20052;-71
2021/09/05 02:12:38;;;;;;;1.58;1.10;;;6.90;99.90;;;;;;5075521;28;20033;-71
2021/09/05 02:15:05;;;;;;;4.00;1.70;;;6.90;99.90;;;;;;5075045;28;20460;-71
2021/09/05 02:17:30;;;;;;;3.95;0.93;;;6.90;99.90;;;;;;5075393;28;20036;-71
2021/09/05 02:19:56;;;;;;;2.40;1.25;;;6.90;99.90;;;;;;5075306;28;20376;-71
2021/09/05 02:22:22;;;;;;;2.58;1.15;;;6.80;99.90;;;;;;5075025;28;20093;-70
2021/09/05 02:24:48;;;;;;;1.83;1.02;;;6.80;99.90;;;;;;5074892;28;20036;-70
2021/09/05 02:27:13;;;;;;;2.05;1.10;;;6.80;99.90;;;;;;5075230;28;20027;-70
2021/09/05 02:29:39;;;;;;;3.20;1.25;;;6.90;99.90;;;;;;5075093;28;20035;-71
2021/09/05 02:32:05;;;;;;;2.47;1.15;;;6.90;99.90;;;;;;5074764;28;20103;-71
2021/09/05 02:34:31;;;;;;;3.45;1.23;;;6.90;99.90;;;;;;5074752;28;20025;-71
2021/09/05 02:36:56;;;;;;;5.57;1.20;;;6.90;99.90;;;;;;5074734;28;20065;-70
2021/09/05 02:39:22;;;;;;;3.63;1.00;;;6.90;99.90;;;;;;5074894;28;20028;-70
2021/09/05 02:41:48;;;;;;;1.83;1.00;;;6.90;99.90;;;;;;5075021;28;20025;-71
2021/09/05 02:44:14;;;;;;;4.57;1.23;;;6.90;99.90;;;;;;5074778;28;20189;-71
2021/09/05 02:46:39;;;;;;;2.03;1.10;;;6.90;99.90;;;;;;5074707;28;20030;-70
2021/09/05 02:49:05;;;;;;;4.85;1.30;;;6.90;99.90;;;;;;5074529;28;20020;-71
2021/09/05 02:51:31;;;;;;;2.95;1.08;;;6.90;99.90;;;;;;5074358;28;20066;-71
2021/09/05 02:53:56;;;;;;;1.77;1.10;;;6.90;99.90;;;;;;5074512;28;20025;-70
2021/09/05 02:56:22;;;;;;;2.85;1.10;;;6.90;99.90;;;;;;5074396;28;20082;-71
2021/09/05 02:58:48;;;;;;;1.73;1.13;;;6.90;99.90;;;;;;5074376;28;20120;-71
2021/09/05 03:01:14;;;;;;;3.17;1.25;;;6.90;99.90;;;;;;5074680;28;20123;-71
2021/09/05 03:03:40;;;;;;;1.83;1.00;;;6.90;99.90;;;;;;5074387;28;20024;-71
2021/09/05 03:06:05;;;;;;;3.17;1.30;;;6.90;99.90;;;;;;5073081;28;20087;-71
2021/09/05 03:08:31;;;;;;;4.53;1.27;;;6.90;99.90;;;;;;5074571;28;20055;-70
2021/09/05 03:10:57;;;;;;;3.22;1.52;;;6.90;99.90;;;;;;5074455;28;20407;-71
2021/09/05 03:13:23;;;;;;;3.45;1.23;;;6.90;99.90;;;;;;5074147;28;20039;-71
2021/09/05 03:15:48;;;;;;;3.08;1.30;;;6.90;99.90;;;;;;5073942;28;20037;-71
2021/09/05 03:18:14;;;;;;;3.55;1.17;;;6.80;99.90;;;;;;5074012;28;20028;-71
2021/09/05 03:20:40;;;;;;;2.42;1.13;;;6.80;99.90;;;;;;5074334;28;20025;-71
2021/09/05 03:23:05;;;;;;;1.58;1.15;;;6.80;99.90;;;;;;5074060;28;20411;-71
2021/09/05 03:25:31;;;;;;;6.78;1.02;;;6.80;99.90;;;;;;5074007;28;20033;-71
2021/09/05 03:27:57;;;;;;;1.33;1.00;;;6.80;99.90;;;;;;5073804;28;20016;-71
2021/09/05 03:30:23;;;;;;;1.38;0.98;;;6.70;99.90;;;;;;5074172;28;20025;-71
2021/09/05 03:32:48;;;;;;;1.52;1.08;;;6.80;99.90;;;;;;5073985;28;20025;-71
2021/09/05 03:35:14;;;;;;;1.85;1.10;;;6.80;99.90;;;;;;5073741;28;20396;-71
2021/09/05 03:37:40;;;;;;;2.78;1.08;;;6.80;99.90;;;;;;5073736;28;20052;-71
2021/09/05 03:40:06;;;;;;;1.67;1.02;;;6.80;99.90;;;;;;5073903;28;20372;-71
2021/09/05 03:42:32;;;;;;;3.05;1.02;;;6.80;99.90;;;;;;5073507;28;20606;-72
2021/09/05 03:44:57;;;;;;;1.42;0.98;;;6.80;99.90;;;;;;5073567;28;20111;-72
2021/09/05 03:47:24;;;;;;;3.92;1.40;;;6.80;99.90;;;;;;5073508;28;20013;-71
2021/09/05 03:49:50;;;;;;;1.00;0.90;;;6.90;99.90;;;;;;5073643;28;20025;-72
2021/09/05 03:52:17;;;;;;;6.30;1.65;;;6.90;99.90;;;;;;5073710;28;20024;-72
2021/09/05 03:54:42;;;;;;;1.73;1.02;;;6.90;99.90;;;;;;5073270;28;20044;-72
2021/09/05 03:57:08;;;;;;;1.95;1.00;;;6.90;99.90;;;;;;5073386;28;20054;-72
2021/09/05 03:59:34;;;;;;;1.20;0.85;;;6.90;99.90;;;;;;5073350;28;20498;-72
2021/09/05 04:02:00;;;;;;;3.53;0.93;;;6.90;99.90;;;;;;5072592;28;20029;-72
2021/09/05 04:04:25;;;;;;;2.15;1.10;;;6.90;99.90;;;;;;5073531;28;20035;-72
2021/09/05 04:07:00;;;;;;;2.75;1.08;;;6.90;99.90;;;;;;5073330;28;20472;-72
2021/09/05 04:12:12;;;;;;;1.10;0.90;;;7.00;99.90;;;;;;5073392;28;20395;-72
2021/09/05 04:14:38;;;;;;;2.30;1.00;;;7.00;99.90;;;;;;5073261;28;20067;-72
2021/09/05 04:17:04;;;;;;;2.47;1.20;;;7.00;99.90;;;;;;5073116;28;20052;-72
2021/09/05 04:19:29;;;;;;;1.80;1.25;;;7.00;99.90;;;;;;5073179;28;20029;-70
2021/09/05 04:21:55;;;;;;;2.38;1.40;;;7.00;99.90;;;;;;5072955;28;20435;-71
2021/09/05 04:24:21;;;;;;;5.95;1.20;;;7.00;99.90;;;;;;5072694;28;20484;-71
2021/09/05 04:26:47;;;;;;;2.45;1.13;;;7.00;99.90;;;;;;5072596;28;20032;-71
2021/09/05 04:29:13;;;;;;;1.73;1.00;;;7.00;99.90;;;;;;5072693;28;20066;-71
2021/09/05 04:31:39;;;;;;;1.15;1.05;;;7.00;99.90;;;;;;5072580;28;20025;-68
2021/09/05 04:34:04;;;;;;;2.30;1.00;;;7.10;99.90;;;;;;5072419;28;20428;-70
2021/09/05 04:36:30;;;;;;;3.03;1.10;;;7.10;99.90;;;;;;5072651;28;20119;-68
2021/09/05 04:38:56;;;;;;;4.53;1.20;;;7.10;99.90;;;;;;5072426;28;20078;-68
2021/09/05 04:41:21;;;;;;;6.72;1.00;;;7.30;99.90;;;;;;5072476;28;20025;-71
2021/09/05 04:43:47;;;;;;;2.63;1.10;;;7.40;99.90;;;;;;5072629;28;20032;-68
2021/09/05 04:46:13;;;;;;;2.22;1.23;;;7.40;99.90;;;;;;5072341;28;20388;-69
2021/09/05 04:48:40;;;;;;;1.77;0.90;;;7.40;99.90;;;;;;5072594;28;20028;-72
2021/09/05 04:51:06;;;;;;;1.50;0.90;;;7.40;99.90;;;;;;5072501;28;20483;-70
2021/09/05 04:53:32;;;;;;;2.25;1.13;;;7.40;99.90;;;;;;5072524;28;20082;-72
2021/09/05 04:55:58;;;;;;;1.83;1.08;;;7.40;99.90;;;;;;5071790;28;20132;-73
2021/09/05 04:58:23;;;;;;;2.63;1.00;;;7.40;99.90;;;;;;5072493;28;20025;-74
2021/09/05 05:00:49;;;;;;;3.67;1.20;;;7.40;99.90;;;;;;5072359;28;20029;-72
2021/09/05 05:03:16;;;;;;;3.85;0.88;;;7.40;99.90;;;;;;5072369;28;20054;-72
2021/09/05 05:05:43;;;;;;;2.33;0.98;;;7.40;99.90;;;;;;5072468;28;20419;-69
2021/09/05 05:08:09;;;;;;;2.20;1.20;;;7.40;99.90;;;;;;5071887;28;20029;-69
2021/09/05 05:10:35;;;;;;;1.58;0.90;;;7.50;99.90;;;;;;5072105;28;20027;-69
2021/09/05 05:13:00;;;;;;;1.25;0.88;;;7.50;99.90;;;;;;5071885;28;20028;-69
2021/09/05 05:15:26;;;;;;;4.30;1.20;;;7.50;99.90;;;;;;5071575;28;20077;-69
2021/09/05 05:17:52;;;;;;;1.75;1.13;;;7.60;99.90;;;;;;5072104;28;20427;-70
2021/09/05 05:20:18;;;;;;;1.80;1.00;;;7.60;99.90;;;;;;5072803;28;20632;-68
2021/09/05 05:22:43;;;;;;;1.67;0.80;;;7.60;99.90;;;;;;5071825;28;20116;-68
2021/09/05 05:25:10;;;;;;;0.85;0.77;;;7.70;99.90;;;;;;5071743;28;20037;-68
2021/09/05 05:27:36;;;;;;;3.30;1.20;;;7.80;99.90;;;;;;5072095;28;20032;-68
2021/09/05 05:30:03;;;;;;;2.85;1.17;;;7.80;99.90;;;;;;5072181;28;20509;-68
2021/09/05 05:32:29;;;;;;;3.53;1.10;;;7.90;99.90;;;;;;5071859;28;20464;-68
2021/09/05 05:34:55;;;;;;;3.28;1.20;;;7.90;99.90;;;;;;5071725;28;20079;-68
2021/09/05 05:37:21;;;;;;;2.55;1.10;;;8.00;99.90;;;;;;5071949;28;20028;-68
2021/09/05 05:39:46;;;;;;;4.53;1.10;;;8.10;99.90;;;;;;5071911;28;20100;-68
2021/09/05 05:42:12;;;;;;;1.95;0.93;;;8.20;99.90;;;;;;5071587;28;20476;-68
2021/09/05 05:44:38;;;;;;;1.23;1.00;;;8.20;99.90;;;;;;5071825;28;20031;-68
2021/09/05 05:47:04;;;;;;;2.45;1.05;;;8.30;99.90;;;;;;5071725;28;20033;-68
2021/09/05 05:49:30;;;;;;;1.83;0.82;;;8.30;99.90;;;;;;5071989;28;20028;-68
2021/09/05 05:51:56;;;;;;;2.75;1.00;;;8.30;99.90;;;;;;5071638;28;20033;-68
2021/09/05 05:54:21;;;;;;;2.47;0.90;;;8.40;99.90;;;;;;5071461;28;20514;-68
2021/09/05 05:56:47;;;;;;;3.13;1.15;;;8.40;99.90;;;;;;5071832;28;20024;-69
2021/09/05 05:59:13;;;;;;;2.42;0.90;;;8.40;99.90;;;;;;5071469;28;20546;-69
2021/09/05 06:01:41;;;;;;;1.77;0.98;;;8.50;99.90;;;;;;5070327;28;20128;-69
2021/09/05 06:04:10;;;;;;;1.98;0.80;;;8.50;99.90;;;;;;5071348;28;20064;-68
2021/09/05 06:06:39;;;;;;;1.63;1.00;;;8.50;99.90;;;;;;5071591;28;20599;-68
2021/09/05 06:09:04;;;;;;;3.00;1.00;;;8.60;99.90;;;;;;5071579;28;20036;-68
2021/09/05 06:11:30;;;;;;;1.60;0.98;;;8.60;99.90;;;;;;5071516;28;20067;-68
2021/09/05 06:13:56;;;;;;;1.48;0.80;;;8.60;99.90;;;;;;5071203;28;20067;-70
2021/09/05 06:16:22;;;;;;;7.78;0.82;;;8.60;99.90;;;;;;5071605;28;20123;-72
2021/09/05 06:18:48;;;;;;;2.78;1.10;;;8.80;99.90;;;;;;5071368;28;20021;-68
2021/09/05 06:21:13;;;;;;;1.35;0.80;;;9.30;99.90;;;;;;5071208;28;20039;-68
2021/09/05 06:23:39;;;;;;;1.17;0.80;;;9.20;99.90;;;;;;5071248;28;20060;-69
2021/09/05 06:26:05;;;;;;;1.38;0.95;;;9.10;99.90;;;;;;5073311;28;20028;-69
2021/09/05 06:28:31;;;;;;;1.65;0.95;;;8.90;99.90;;;;;;5074991;28;20025;-69
2021/09/05 06:30:57;;;;;;;2.28;1.10;;;8.90;99.90;;;;;;5074910;28;20031;-69
2021/09/05 06:33:23;;;;;;;2.60;0.75;;;8.90;99.90;;;;;;5074774;28;20143;-68
2021/09/05 06:35:48;;;;;;;2.20;0.80;;;8.90;99.90;;;;;;5075145;28;20123;-72
2021/09/05 06:38:14;;;;;;;3.42;1.00;;;9.50;99.90;;;;;;5074994;28;20483;-70
2021/09/05 06:40:40;;;;;;;2.05;0.80;;;10.70;99.90;;;;;;5075111;28;20115;-70
2021/09/05 06:43:06;;;;;;;2.30;1.10;;;10.50;99.90;;;;;;5074826;28;20027;-70
2021/09/05 06:45:32;;;;;;;3.72;1.10;;;10.10;99.90;;;;;;5074727;28;20545;-70
2021/09/05 06:47:58;;;;;;;1.00;0.80;;;9.90;99.90;;;;;;5074506;28;20024;-69
2021/09/05 06:50:24;;;;;;;2.25;1.00;;;9.80;99.90;;;;;;5074993;28;20028;-70
2021/09/05 06:52:50;;;;;;;2.80;0.98;;;9.70;99.90;;;;;;5074918;28;20028;-70
2021/09/05 06:55:16;;;;;;;3.05;0.85;;;9.70;99.90;;;;;;5074358;28;20454;-69
2021/09/05 06:57:42;;;;;;;1.58;0.95;;;9.70;99.90;;;;;;5074866;28;20021;-69
2021/09/05 07:00:08;;;;;;;2.60;0.90;;;9.80;99.90;;;;;;5074464;28;20029;-70
2021/09/05 07:02:34;;;;;;;2.00;0.85;;;10.20;99.90;;;;;;5074381;28;20562;-71
2021/09/05 07:05:02;;;;;;;1.95;1.00;;;10.60;99.90;;;;;;5074615;28;20099;-71
2021/09/05 07:07:28;;;;;;;1.83;0.80;;;10.70;99.90;;;;;;5074709;28;20020;-72
2021/09/05 07:09:53;;;;;;;4.25;0.90;;;10.70;99.90;;;;;;5073419;28;20021;-69
2021/09/05 07:12:19;;;;;;;2.92;0.90;;;10.60;99.90;;;;;;5074152;28;20032;-69
2021/09/05 07:14:45;;;;;;;2.75;0.95;;;10.60;99.90;;;;;;5074342;28;20112;-69
2021/09/05 07:17:11;;;;;;;2.03;0.88;;;10.60;99.90;;;;;;5073996;28;20028;-69
2021/09/05 07:19:37;;;;;;;1.90;1.00;;;10.60;99.90;;;;;;5074306;28;20032;-68
2021/09/05 07:22:03;;;;;;;1.85;0.90;;;10.70;99.90;;;;;;5073885;28;20507;-69
2021/09/05 07:24:28;;;;;;;2.92;0.90;;;10.70;99.90;;;;;;5073973;28;20032;-69
2021/09/05 07:26:54;;;;;;;4.43;1.02;;;10.80;99.90;;;;;;5074297;28;20025;-70
2021/09/05 07:29:20;;;;;;;1.70;1.00;;;10.80;99.90;;;;;;5073728;28;20089;-71
2021/09/05 07:31:45;;;;;;;1.67;1.00;;;10.80;99.90;;;;;;5073935;28;20028;-71
2021/09/05 07:34:11;;;;;;;2.75;1.15;;;10.90;99.90;;;;;;5073891;28;20063;-71
2021/09/05 07:36:37;;;;;;;2.00;0.80;;;11.00;99.90;;;;;;5073113;28;20040;-71
2021/09/05 07:39:03;;;;;;;2.80;1.00;;;11.00;99.90;;;;;;5073349;28;20099;-69
2021/09/05 07:41:30;;;;;;;1.20;0.70;;;11.10;99.90;;;;;;5073905;28;20032;-69
2021/09/05 07:43:56;;;;;;;1.70;0.70;;;11.10;99.90;;;;;;5073485;28;20108;-69
2021/09/05 07:46:21;;;;;;;2.42;1.15;;;11.20;99.90;;;;;;5073439;28;20150;-71
2021/09/05 07:48:47;;;;;;;2.38;1.17;;;11.20;99.90;;;;;;5073374;28;20107;-70
2021/09/05 07:51:13;;;;;;;1.42;1.02;;;11.30;99.90;;;;;;5073328;28;20039;-70
2021/09/05 07:53:38;;;;;;;3.42;0.75;;;11.30;99.90;;;;;;5073278;28;20020;-70
2021/09/05 07:56:04;;;;;;;4.40;1.02;;;11.30;99.90;;;;;;5073125;28;20036;-70
2021/09/05 07:58:30;;;;;;;1.30;0.90;;;11.30;99.90;;;;;;5073250;28;20070;-70
2021/09/05 08:00:56;;;;;;;1.48;0.75;;;11.40;99.90;;;;;;5073352;28;20028;-70
2021/09/05 08:03:22;;;;;;;1.65;0.90;;;11.40;99.90;;;;;;5073267;28;20469;-70
2021/09/05 08:05:48;;;;;;;1.05;0.75;;;11.50;99.90;;;;;;5073402;28;20112;-70
2021/09/05 08:08:17;;;;;;;1.42;0.80;;;11.50;99.90;;;;;;5072885;28;20090;-70
2021/09/05 08:10:42;;;;;;;1.15;0.82;;;11.60;99.90;;;;;;5073304;28;20027;-70
2021/09/05 08:13:08;;;;;;;3.22;1.00;;;11.60;99.90;;;;;;5073087;28;20016;-70
2021/09/05 08:15:34;;;;;;;1.83;0.80;;;11.70;99.90;;;;;;5072917;28;20036;-70
2021/09/05 08:17:59;;;;;;;3.90;1.13;;;11.70;99.90;;;;;;5072792;28;20035;-70
2021/09/05 08:20:25;;;;;;;1.90;0.80;;;11.80;99.90;;;;;;5073286;28;20066;-69
2021/09/05 08:22:51;;;;;;;1.58;0.60;;;11.90;99.90;;;;;;5072879;28;20021;-69
2021/09/05 08:25:16;;;;;;;1.58;0.80;;;11.90;99.90;;;;;;5071585;28;20016;-70
2021/09/05 08:27:42;;;;;;;0.90;0.60;;;11.90;99.90;;;;;;5073081;28;20093;-70
2021/09/05 08:30:09;;;;;;;1.50;0.75;;;11.90;99.90;;;;;;5072937;28;20450;-70
2021/09/05 08:32:35;;;;;;;1.63;0.80;;;12.00;99.90;;;;;;5072690;28;20138;-70
2021/09/05 08:35:00;;;;;;;1.55;0.80;;;12.10;99.90;;;;;;5072463;28;20032;-69
2021/09/05 08:37:26;;;;;;;2.47;0.77;;;12.10;99.90;;;;;;5072913;28;20063;-69
2021/09/05 08:39:52;;;;;;;2.72;0.93;;;12.20;99.90;;;;;;5072892;28;20087;-69
2021/09/05 08:42:18;;;;;;;1.60;1.00;;;12.30;99.90;;;;;;5072328;28;20546;-70
2021/09/05 08:44:43;;;;;;;1.05;0.70;;;12.30;99.90;;;;;;5072818;28;20104;-70
2021/09/05 08:47:09;;;;;;;2.47;0.93;;;12.30;99.90;;;;;;5072266;28;20024;-70
2021/09/05 08:49:36;;;;;;;1.25;0.73;;;12.40;99.90;;;;;;5072120;28;20141;-69
2021/09/05 08:52:05;;;;;;;2.97;0.98;;;12.50;99.90;;;;;;5072489;28;20028;-70
2021/09/05 08:54:31;;;;;;;0.93;0.77;;;12.50;99.90;;;;;;5071904;28;20041;-69
2021/09/05 08:56:57;;;;;;;1.38;0.95;;;12.60;99.90;;;;;;5072238;28;20479;-78
2021/09/05 08:59:23;;;;;;;0.98;0.68;;;12.70;99.90;;;;;;5072305;28;20032;-70
2021/09/05 09:02:00;;;;;;;3.05;1.00;;;13.40;99.90;;;;;;5072450;28;20483;-70
2021/09/05 09:04:34;;;;;;;2.85;0.70;;;13.40;99.70;;;;;;5072223;28;20032;-70
2021/09/05 09:07:16;;;;;;;2.15;1.00;;;13.40;99.90;;;;;;5072112;28;20021;-70
2021/09/05 09:10:01;;;;;;;1.58;0.70;;;13.30;99.30;;;;;;5072139;28;20025;-70
2021/09/05 09:12:46;;;;;;;1.30;0.70;;;13.30;99.10;;;;;;5072204;28;20033;-70
2021/09/05 09:15:24;;;;;;;2.97;0.90;;;13.30;98.80;;;;;;5072142;28;20395;-70
2021/09/05 09:18:04;;;;;;;6.13;0.90;;;13.30;99.10;;;;;;5071968;28;20392;-70
2021/09/05 09:20:31;;;;;;;1.77;1.15;;;13.30;99.30;;;;;;5072351;28;20032;-70
2021/09/05 09:23:12;;;;;;;1.08;0.88;;;13.30;98.90;;;;;;5072093;28;20032;-70
2021/09/05 09:25:50;;;;;;;2.47;1.08;;;13.30;98.90;;;;;;5071920;28;20028;-70
2021/09/05 09:28:27;;;;;;;1.90;1.40;;;13.30;98.60;;;;;;5071934;28;20025;-71
2021/09/05 09:30:53;;;;;;;45.20;2.50;;;13.40;98.40;;;;;;5072181;28;20024;-69
2021/09/05 09:33:24;;;;;;;2.42;1.10;;;13.40;99.30;;;;;;5071643;28;20021;-70
2021/09/05 09:35:52;;;;;;;0.80;0.63;;;13.70;99.30;;;;;;5071576;28;20041;-70
2021/09/05 09:38:19;;;;;;;2.10;0.80;;;13.70;98.40;;;;;;5071742;28;20021;-69
2021/09/05 09:40:47;;;;;;;1.05;0.80;;;13.70;97.00;;;;;;5074663;28;20021;-70
2021/09/05 09:43:21;;;;;;;1.38;0.80;;;13.70;95.50;;;;;;5071473;28;20510;-69
2021/09/05 09:45:47;;;;;;;0.90;0.73;;;13.70;94.60;;;;;;5071573;28;20103;-69
2021/09/05 09:48:31;;;;;;;1.65;0.88;;;13.70;94.70;;;;;;5071949;28;20029;-70
2021/09/05 09:51:00;;;;;;;4.93;1.02;;;13.70;94.00;;;;;;5071938;28;20054;-70
2021/09/05 09:53:28;;;;;;;1.92;0.80;;;13.70;94.20;;;;;;5071803;28;20025;-70
2021/09/05 09:55:56;;;;;;;1.38;0.70;;;13.80;93.50;;;;;;5071361;28;20052;-70
2021/09/05 09:58:21;;;;;;;2.15;1.02;;;13.80;93.30;;;;;;5071704;28;20035;-70
2021/09/05 10:00:48;;;;;;;4.38;1.10;;;13.80;92.90;;;;;;5073365;28;20029;-70
2021/09/05 10:03:15;;;;;;;2.80;0.88;;;13.80;92.50;;;;;;5075620;28;20021;-70
2021/09/05 10:05:42;;;;;;;1.42;0.75;;;13.80;91.70;;;;;;5075502;28;20055;-70
2021/09/05 10:08:08;;;;;;;2.17;0.93;;;13.80;91.30;;;;;;5075545;28;20076;-70
2021/09/05 10:10:34;;;;;;;1.30;1.00;;;13.90;91.80;;;;;;5075383;28;20016;-70
2021/09/05 10:13:02;;;;;;;2.08;0.90;;;13.90;91.30;;;;;;5075528;28;20025;-69
2021/09/05 10:15:28;;;;;;;0.93;0.70;;;13.90;91.40;;;;;;5075031;28;20043;-68
2021/09/05 10:17:55;;;;;;;2.47;0.73;;;13.90;90.90;;;;;;5075145;28;20020;-69
2021/09/05 10:20:23;;;;;;;1.73;0.93;;;13.90;90.50;;;;;;5075337;28;20024;-69
2021/09/05 10:22:50;;;;;;;1.63;0.70;;;13.90;89.80;;;;;;5075074;28;20043;-69
2021/09/05 10:25:17;;;;;;;2.80;1.10;;;13.90;89.10;;;;;;5075046;28;20032;-69
2021/09/05 10:27:51;;;;;;;1.20;0.90;;;13.90;88.00;;;;;;5074930;28;20031;-69
2021/09/05 10:30:21;;;;;;;2.22;1.05;;;13.90;88.20;;;;;;5074925;28;20361;-69
2021/09/05 10:32:55;;;;;;;1.00;0.70;;;13.90;88.70;;;;;;5075215;28;20027;-69
2021/09/05 10:35:38;;;;;;;2.28;0.90;;;14.00;90.10;;;;;;5074951;28;20103;-69
2021/09/05 10:38:15;;;;;;;3.53;1.02;;;14.00;90.40;;;;;;5074785;28;20480;-69
2021/09/05 10:40:43;;;;;;;6.07;0.95;;;14.00;89.70;;;;;;5074981;28;20099;-70
2021/09/05 10:43:09;;;;;;;2.97;0.88;;;14.00;89.70;;;;;;5074835;28;20029;-70
2021/09/05 10:45:40;;;;;;;3.47;0.77;;;14.10;90.20;;;;;;5074966;28;20024;-70
2021/09/05 10:48:37;;;;;;;1.75;0.95;;;14.10;89.80;;;;;;5074968;28;20103;-71
2021/09/05 10:51:12;;;;;;;3.45;1.10;;;14.10;90.00;;;;;;5074872;28;20020;-70
2021/09/05 10:54:02;;;;;;;1.33;0.75;;;14.10;90.60;;;;;;5074478;28;20108;-70
2021/09/05 10:56:27;;;;;;;1.35;0.90;;;14.20;88.10;;;;;;5074192;28;20044;-70
2021/09/05 10:59:05;;;;;;;1.38;0.80;;;14.10;87.50;;;;;;5062423;28;20033;-70
2021/09/05 11:01:38;;;;;;;1.45;0.70;;;14.10;86.70;;;;;;5054599;28;20362;-71
2021/09/05 11:04:13;;;;;;;1.50;0.80;;;14.10;86.70;;;;;;5054494;28;20025;-71
2021/09/05 11:06:42;;;;;;;1.98;0.80;;;14.10;85.30;;;;;;5054394;28;20023;-71
2021/09/05 11:09:23;;;;;;;1.92;0.80;;;14.10;85.60;;;;;;5056953;28;20021;-71
2021/09/05 11:12:03;;;;;;;1.50;0.85;;;14.10;85.00;;;;;;5064269;28;20472;-70
2021/09/05 11:14:34;;;;;;;3.00;1.00;;;14.20;85.00;;;;;;5074468;28;20086;-72
2021/09/05 11:17:10;;;;;;;1.40;0.77;;;14.20;84.60;;;;;;5074558;28;20135;-72
2021/09/05 11:19:42;;;;;;;3.40;0.90;;;14.20;85.60;;;;;;5074392;28;20024;-72
2021/09/05 11:22:09;;;;;;;2.20;0.80;;;14.30;86.00;;;;;;5074082;28;20052;-72
2021/09/05 11:24:35;;;;;;;0.98;0.60;;;14.30;85.00;;;;;;5074347;28;20126;-72
2021/09/05 11:27:02;;;;;;;1.00;0.60;;;14.40;84.00;;;;;;5073963;28;20058;-72
2021/09/05 11:29:29;;;;;;;1.85;0.90;;;14.40;83.60;;;;;;5073685;28;20108;-72
2021/09/05 11:32:06;;;;;;;2.17;1.02;;;14.40;82.10;;;;;;5073912;28;20056;-73
2021/09/05 11:34:33;;;;;;;6.53;1.50;;;14.40;81.80;;;;;;5073662;28;20488;-78
2021/09/05 11:36:59;;;;;;;6.55;0.90;;;14.70;95.20;;;;;;5073731;28;20036;-72
2021/09/05 11:39:26;;;;;;;3.22;0.77;;;15.20;91.50;;;;;;5073599;28;20078;-71
2021/09/05 11:41:56;;;;;;;10.25;1.63;;;15.20;86.20;;;;;;5072367;28;20495;-72
2021/09/05 11:44:36;;;;;;;;;;;15.00;83.20;;;;;;5073968;28;20112;-71
2021/09/05 11:47:13;;;;;;;2.17;0.80;;;14.90;81.30;;;;;;5073648;28;19904;-72
2021/09/05 11:50:06;;;;;;;1.10;0.65;;;14.80;82.20;;;;;;5073431;28;20029;-72
2021/09/05 11:52:33;;;;;;;1.95;1.00;;;14.70;81.50;;;;;;5072909;28;20033;-72
2021/09/05 11:55:02;;;;;;;2.22;0.80;;;14.70;81.70;;;;;;5073050;28;20049;-72
2021/09/05 11:57:29;;;;;;;1.15;0.60;;;14.60;82.10;;;;;;5073243;28;20035;-72
2021/09/05 11:59:57;;;;;;;12.93;2.05;;;14.60;81.60;;;;;;5073295;28;20021;-72
2021/09/05 12:02:31;;;;;;;3.35;0.90;;;14.60;80.70;;;;;;5073428;28;20754;-72
2021/09/05 12:04:57;;;;;;;5.97;1.90;;;14.60;80.10;;;;;;5073158;28;20028;-72
2021/09/05 12:07:23;;;;;;;2.08;0.90;;;14.80;83.80;;;;;;5073392;28;20024;-72
2021/09/05 12:10:03;;;;;;;3.95;1.40;;;14.80;80.20;;;;;;5073261;28;20047;-72
2021/09/05 12:12:28;;;;;;;2.95;1.02;;;14.70;78.20;;;;;;5073072;28;20021;-72
2021/09/05 12:14:54;;;;;;;1.25;0.82;;;14.70;78.50;;;;;;5073271;28;20025;-72
2021/09/05 12:17:21;;;;;;;2.92;0.88;;;14.60;79.00;;;;;;5072927;28;20609;-72
2021/09/05 12:20:21;;;;;;;1.60;0.73;;;14.60;79.10;;;;;;5072835;28;20099;-72
2021/09/05 12:22:53;;;;;;;1.90;0.70;;;14.60;79.90;;;;;;5071201;28;20033;-72
2021/09/05 12:25:31;;;;;;;9.93;1.77;;;14.60;78.60;;;;;;5072859;28;20082;-72
2021/09/05 12:27:58;;;;;;;2.40;1.13;;;14.60;78.70;;;;;;5072818;28;20570;-72
2021/09/05 12:30:40;;;;;;;3.10;1.20;;;14.50;78.60;;;;;;5073134;28;20048;-72
2021/09/05 12:33:13;;;;;;;5.72;1.38;;;14.50;79.60;;;;;;5072872;28;20020;-72
2021/09/05 12:35:44;;;;;;;7.90;1.90;;;14.50;80.10;;;;;;5072919;28;20439;-72
2021/09/05 12:38:31;;;;;;;2.75;0.82;;;14.50;80.80;;;;;;5072596;28;20032;-72
2021/09/05 12:41:14;;;;;;;0.90;0.70;;;14.50;82.70;;;;;;5071967;28;20044;-72
2021/09/05 12:43:50;;;;;;;1.02;0.70;;;14.50;82.20;;;;;;5072383;28;20487;-69
2021/09/05 12:46:18;;;;;;;1.40;0.60;;;14.50;82.10;;;;;;5072384;28;20028;-70
2021/09/05 12:48:47;;;;;;;1.00;0.60;;;14.50;82.30;;;;;;5072666;28;20032;-71
2021/09/05 12:51:17;;;;;;;2.50;0.73;;;14.40;82.30;;;;;;5072435;28;20103;-70
2021/09/05 12:53:58;;;;;;;1.58;0.50;;;14.40;82.10;;;;;;5072112;28;20028;-71
2021/09/05 12:56:25;;;;;;;0.98;0.63;;;14.40;82.30;;;;;;5072304;28;20085;-71
2021/09/05 12:58:52;;;;;;;3.42;0.55;;;14.30;82.50;;;;;;5072311;28;20032;-72
2021/09/05 13:01:21;;;;;;;2.33;0.50;;;14.30;82.20;;;;;;5071920;28;20032;-73
2021/09/05 13:03:47;;;;;;;1.83;0.40;;;14.30;82.50;;;;;;5071936;28;20024;-73
2021/09/05 13:06:13;;;;;;;1.20;0.60;;;14.30;82.70;;;;;;5072084;28;20107;-73
2021/09/05 13:08:39;;;;;;;1.17;0.50;;;14.30;82.10;;;;;;5071877;28;20095;-73
2021/09/05 13:11:04;;;;;;;0.95;0.50;;;14.30;82.60;;;;;;5072314;28;20025;-72
2021/09/05 13:13:30;;;;;;;2.47;0.75;;;14.30;81.90;;;;;;5071723;28;20468;-73
2021/09/05 13:15:56;;;;;;;0.68;0.40;;;14.30;82.60;;;;;;5072179;28;20074;-73
2021/09/05 13:18:21;;;;;;;1.55;0.40;;;14.30;82.80;;;;;;5070407;28;20031;-74
2021/09/05 13:20:47;;;;;;;1.05;0.40;;;14.30;82.80;;;;;;5072271;28;20032;-74
2021/09/05 13:23:13;;;;;;;0.98;0.63;;;14.40;84.00;;;;;;5071795;28;20024;-74
2021/09/05 13:25:38;;;;;;;0.43;0.40;;;14.40;83.70;;;;;;5071881;28;20032;-74
2021/09/05 13:28:04;;;;;;;2.38;0.60;;;14.40;82.60;;;;;;5071541;28;20026;-74
2021/09/05 13:30:30;;;;;;;1.10;0.47;;;14.40;82.00;;;;;;5067083;28;20609;-74